Time;durP1;ratioP1;P1;durP2;ratioP2;P2;SDS_P1;SDS_P2;PMS_P1;PMS_P2;Temp;Humidity;BMP_temperature;BMP_pressure;BME280_temperature;BME280_humidity;BME280_pressure;Samples;Min_cycle;Max_cycle;Signal;HPM_P1;HPM_P2
2022/10/11 00:01:22;;;;;;;3.78;1.55;;;;;;;9.33;71.39;101054.09;5136078;27;20059;-54
2022/10/11 00:03:49;;;;;;;5.68;1.77;;;;;;;9.31;71.78;101062.72;5135987;27;20532;-53
2022/10/11 00:06:17;;;;;;;4.57;1.60;;;;;;;9.25;71.74;101058.34;5136243;27;20062;-54
2022/10/11 00:08:44;;;;;;;6.55;1.38;;;;;;;9.25;72.75;101063.91;5136023;27;20074;-53
2022/10/11 00:11:11;;;;;;;4.93;1.50;;;;;;;9.18;71.85;101057.84;5131649;27;20062;-52
2022/10/11 00:13:39;;;;;;;5.18;1.40;;;;;;;9.13;72.77;101063.44;5134267;27;20065;-54
2022/10/11 00:16:11;;;;;;;4.80;1.73;;;;;;;9.11;71.87;101062.91;5136025;27;20506;-55
2022/10/11 00:18:40;;;;;;;2.55;1.10;;;;;;;9.09;72.85;101059.56;5135747;27;20380;-54
2022/10/11 00:21:11;;;;;;;5.00;1.67;;;;;;;9.11;72.08;101068.47;5135728;27;20388;-54
2022/10/11 00:23:39;;;;;;;4.03;1.85;;;;;;;9.07;71.79;101075.72;5135598;27;20059;-53
2022/10/11 00:26:08;;;;;;;5.22;1.52;;;;;;;9.05;72.70;101073.25;5132454;27;20063;-53
2022/10/11 00:28:36;;;;;;;3.92;1.77;;;;;;;9.06;72.55;101076.84;5134619;27;20051;-52
2022/10/11 00:31:07;;;;;;;5.82;1.27;;;;;;;9.04;71.58;101084.63;5135316;27;20399;-52
2022/10/11 00:33:39;;;;;;;4.20;1.40;;;;;;;8.99;71.74;101077.19;5137921;27;20066;-53
2022/10/11 00:36:08;;;;;;;6.03;1.73;;;;;;;8.97;72.25;101081.38;5135420;27;20066;-54
2022/10/11 00:38:35;;;;;;;6.88;1.58;;;;;;;8.97;73.03;101082.19;5135664;27;20055;-54
2022/10/11 00:41:02;;;;;;;7.25;2.13;;;;;;;8.96;73.11;101093.59;5135411;27;20089;-54
2022/10/11 00:43:32;;;;;;;4.80;1.60;;;;;;;8.92;72.78;101094.19;5133481;27;20055;-55
2022/10/11 00:46:04;;;;;;;6.68;2.10;;;;;;;8.91;71.96;101092.50;5135303;27;20055;-54
2022/10/11 00:48:36;;;;;;;5.45;1.67;;;;;;;8.89;72.81;101094.72;5135042;27;20055;-53
2022/10/11 00:51:10;;;;;;;4.05;1.80;;;;;;;8.91;71.58;101092.50;5135678;27;20055;-54
2022/10/11 00:53:40;;;;;;;3.45;1.63;;;;;;;8.91;72.65;101091.69;5134834;27;20067;-54
2022/10/11 00:56:13;;;;;;;6.38;1.85;;;;;;;8.90;71.89;101088.06;5134812;27;20058;-53
2022/10/11 00:58:48;;;;;;;8.05;2.65;;;;;;;8.91;71.50;101098.06;5134566;27;20498;-53
2022/10/11 01:01:15;;;;;;;7.03;2.35;;;;;;;8.89;72.67;101100.28;5133610;27;20059;-53
2022/10/11 01:03:44;;;;;;;5.15;2.00;;;;;;;8.85;72.55;101099.22;5119558;27;20062;-53
2022/10/11 01:06:12;;;;;;;5.07;1.98;;;;;;;8.80;73.10;101096.47;5114647;28;20052;-54
2022/10/11 01:08:40;;;;;;;4.55;1.83;;;;;;;8.77;73.04;101097.03;5114403;28;20063;-54
2022/10/11 01:11:12;;;;;;;5.47;2.08;;;;;;;8.76;72.58;101095.38;5130859;27;20058;-53
2022/10/11 01:13:48;;;;;;;6.63;2.40;;;;;;;8.73;73.23;101099.56;5131834;27;20495;-54
2022/10/11 01:16:24;;;;;;;9.00;2.38;;;;;;;8.72;73.11;101095.13;5134392;27;20062;-53
2022/10/11 01:19:06;;;;;;;6.00;2.47;;;;;;;8.70;73.32;101102.09;5132454;27;20628;-56
2022/10/11 01:21:45;;;;;;;6.90;2.30;;;;;;;8.71;73.24;101100.94;5137620;27;20077;-53
2022/10/11 01:24:26;;;;;;;7.82;2.15;;;;;;;8.71;73.10;101098.19;5154113;27;20061;-52
2022/10/11 01:27:33;;;;;;;6.10;2.70;;;;;;;8.69;71.72;101104.03;5113966;28;20412;-54
2022/10/11 01:30:24;;;;;;;7.13;2.83;;;;;;;8.64;72.88;101106.00;5112863;28;20063;-53
2022/10/11 01:33:07;;;;;;;6.50;2.20;;;;;;;8.56;72.39;101101.88;5124331;27;20059;-54
2022/10/11 01:35:41;;;;;;;8.25;2.47;;;;;;;8.53;71.61;101103.28;5134359;27;20059;-55
2022/10/11 01:38:13;;;;;;;8.68;2.85;;;;;;;8.49;73.04;101104.13;5134470;27;20062;-52
2022/10/11 01:40:49;;;;;;;6.07;2.00;;;;;;;8.47;73.14;101109.97;5134118;27;20070;-55
2022/10/11 01:43:18;;;;;;;9.02;2.17;;;;;;;8.46;72.38;101108.31;5134190;27;20059;-54
2022/10/11 01:45:49;;;;;;;4.10;1.98;;;;;;;8.46;72.62;101108.31;5132830;27;20062;-53
2022/10/11 01:48:17;;;;;;;7.90;2.10;;;;;;;8.43;72.27;101106.09;5134653;27;20059;-52
2022/10/11 01:50:47;;;;;;;6.22;2.00;;;;;;;8.42;71.61;101106.38;5134451;27;20063;-53
2022/10/11 01:53:41;;;;;;;6.03;1.95;;;;;;;8.40;72.29;101106.66;5134004;27;20051;-55
2022/10/11 01:56:21;;;;;;;4.72;1.95;;;;;;;8.37;72.76;101103.59;5129240;27;20059;-51
2022/10/11 01:59:02;;;;;;;7.53;2.30;;;;;;;8.33;72.58;101115.25;5133917;27;20051;-52
2022/10/11 02:01:46;;;;;;;4.65;2.22;;;;;;;8.28;72.16;101115.28;5132107;27;20058;-55
2022/10/11 02:04:25;;;;;;;4.85;1.85;;;;;;;8.30;71.57;101115.84;5133102;27;20430;-54
2022/10/11 02:07:03;;;;;;;7.20;1.95;;;;;;;8.28;70.85;101114.47;5133915;27;20051;-56
2022/10/11 02:09:36;;;;;;;5.68;2.00;;;;;;;8.23;71.56;101111.69;5131861;27;20047;-55
2022/10/11 02:12:07;;;;;;;4.38;1.88;;;;;;;8.21;71.70;101117.53;5133779;27;20062;-54
2022/10/11 02:14:39;;;;;;;5.93;1.67;;;;;;;8.22;70.73;101118.38;5133575;27;20070;-52
2022/10/11 02:17:13;;;;;;;4.47;1.70;;;;;;;8.17;72.12;101119.22;5133332;27;20051;-55
2022/10/11 02:19:44;;;;;;;6.57;2.03;;;;;;;8.13;71.47;101118.94;5133822;27;20158;-55
2022/10/11 02:22:15;;;;;;;6.60;1.90;;;;;;;8.09;71.46;101115.06;5134009;27;20055;-55
2022/10/11 02:24:48;;;;;;;6.57;2.03;;;;;;;8.08;71.57;101118.13;5132060;27;20495;-55
2022/10/11 02:27:19;;;;;;;4.00;1.65;;;;;;;8.10;72.26;101121.44;5133685;27;20058;-63
2022/10/11 02:29:48;;;;;;;3.92;1.70;;;;;;;8.06;71.55;101123.97;5132942;27;20058;-63
2022/10/11 02:32:18;;;;;;;4.50;2.42;;;;;;;8.03;71.48;101121.75;5133146;27;20404;-63
2022/10/11 02:34:52;;;;;;;5.88;1.90;;;;;;;8.03;72.42;101116.19;5132144;27;20059;-62
2022/10/11 02:37:25;;;;;;;3.58;1.88;;;;;;;8.06;71.88;101115.66;5132764;27;20415;-63
2022/10/11 02:39:59;;;;;;;5.05;1.83;;;;;;;8.02;72.28;101120.09;5133067;27;20063;-62
2022/10/11 02:42:32;;;;;;;6.18;2.45;;;;;;;8.06;72.62;101120.34;5133448;27;20070;-63
2022/10/11 02:45:04;;;;;;;4.13;2.20;;;;;;;8.08;71.82;101130.06;5133222;27;20051;-63
2022/10/11 02:47:33;;;;;;;7.20;2.47;;;;;;;8.11;72.53;101128.69;5133668;27;20523;-55
2022/10/11 02:50:01;;;;;;;8.35;2.42;;;;;;;8.12;72.93;101125.59;5132412;27;20050;-55
2022/10/11 02:52:28;;;;;;;5.18;2.33;;;;;;;8.15;72.17;101129.78;5132815;28;20051;-54
2022/10/11 02:54:56;;;;;;;6.25;2.85;;;;;;;8.16;73.97;101134.19;5131101;27;20388;-54
2022/10/11 02:57:23;;;;;;;6.55;2.60;;;;;;;8.19;74.18;101132.78;5132995;28;20514;-55
2022/10/11 02:59:50;;;;;;;7.95;3.25;;;;;;;8.26;73.45;101141.66;5133310;28;20387;-53
2022/10/11 03:02:17;;;;;;;9.38;2.95;;;;;;;8.29;72.12;101141.09;5132226;27;20066;-55
2022/10/11 03:04:46;;;;;;;6.85;3.00;;;;;;;8.30;71.85;101140.00;5132941;28;20490;-55
2022/10/11 03:07:13;;;;;;;6.82;2.83;;;;;;;8.31;72.83;101141.63;5132668;28;20051;-55
2022/10/11 03:09:41;;;;;;;10.93;3.25;;;;;;;8.26;71.50;101148.03;5132945;28;20062;-55
2022/10/11 03:12:11;;;;;;;6.90;3.65;;;;;;;8.27;71.00;101146.09;5133141;28;20059;-55
2022/10/11 03:14:38;;;;;;;7.82;3.05;;;;;;;8.21;72.11;101144.44;5130936;27;20061;-56
2022/10/11 03:17:06;;;;;;;8.27;3.22;;;;;;;8.18;71.77;101151.41;5131961;27;20059;-55
2022/10/11 03:19:33;;;;;;;7.75;3.08;;;;;;;8.17;71.57;101154.44;5132518;28;20078;-55
2022/10/11 03:22:02;;;;;;;7.32;2.88;;;;;;;8.13;71.63;101157.78;5135830;27;20505;-56
2022/10/11 03:24:29;;;;;;;9.32;3.45;;;;;;;8.12;72.56;101166.38;5137019;27;20055;-56
2022/10/11 03:26:56;;;;;;;7.07;2.58;;;;;;;8.13;73.47;101163.34;5137038;27;20055;-53
2022/10/11 03:29:24;;;;;;;6.20;2.72;;;;;;;8.14;72.48;101162.22;5136871;27;20055;-57
2022/10/11 03:31:51;;;;;;;7.70;3.10;;;;;;;8.13;73.73;101166.13;5135084;27;20066;-55
2022/10/11 03:34:19;;;;;;;5.93;3.08;;;;;;;8.09;73.71;101164.19;5136958;27;20062;-55
2022/10/11 03:36:47;;;;;;;4.93;2.40;;;;;;;8.13;71.58;101165.28;5136867;27;20055;-55
2022/10/11 03:39:16;;;;;;;7.75;2.65;;;;;;;8.09;72.53;101167.78;5136783;27;20055;-55
2022/10/11 03:41:43;;;;;;;7.63;2.55;;;;;;;8.06;71.86;101178.59;5136622;27;20051;-56
2022/10/11 03:44:10;;;;;;;4.85;2.08;;;;;;;8.05;71.32;101186.09;5136675;27;20109;-53
2022/10/11 03:46:38;;;;;;;5.85;2.60;;;;;;;8.02;71.76;101181.13;5134707;27;20062;-54
2022/10/11 03:49:05;;;;;;;7.80;2.55;;;;;;;8.07;71.54;101191.38;5136740;27;20055;-54
2022/10/11 03:51:33;;;;;;;7.93;3.17;;;;;;;8.00;72.33;101188.06;5135211;27;20065;-56
2022/10/11 03:54:00;;;;;;;5.95;2.90;;;;;;;8.00;72.18;101190.81;5136218;27;20062;-56
2022/10/11 03:56:28;;;;;;;5.40;2.95;;;;;;;7.95;71.96;101190.84;5136341;27;20051;-56
2022/10/11 03:58:56;;;;;;;7.57;2.83;;;;;;;7.91;71.54;101187.78;5135241;27;20058;-54
2022/10/11 04:01:23;;;;;;;6.88;2.70;;;;;;;7.92;71.04;101198.63;5135167;27;20078;-53
2022/10/11 04:03:50;;;;;;;8.18;2.85;;;;;;;7.89;71.22;101198.31;5149473;27;20059;-53
2022/10/11 04:06:17;;;;;;;6.70;2.97;;;;;;;7.86;71.24;101199.72;5157070;27;20062;-53
2022/10/11 04:08:45;;;;;;;7.05;2.47;;;;;;;7.82;71.23;101203.34;5139550;27;20513;-55
2022/10/11 04:11:12;;;;;;;4.97;2.65;;;;;;;7.73;71.11;101198.34;5136402;27;20063;-54
2022/10/11 04:13:40;;;;;;;5.43;2.53;;;;;;;7.72;70.92;101206.94;5135772;27;20062;-54
2022/10/11 04:16:08;;;;;;;6.65;2.55;;;;;;;7.70;72.02;101203.59;5136015;27;20411;-53
2022/10/11 04:18:35;;;;;;;5.65;2.95;;;;;;;7.64;71.91;101208.34;5135982;27;20059;-54
2022/10/11 04:21:02;;;;;;;4.53;2.38;;;;;;;7.67;70.91;101213.31;5135952;27;20333;-54
2022/10/11 04:23:30;;;;;;;4.55;2.35;;;;;;;7.65;71.11;101207.22;5134147;27;20055;-54
2022/10/11 04:25:57;;;;;;;7.20;2.97;;;;;;;7.66;71.15;101210.81;5135270;27;20062;-54
2022/10/11 04:28:25;;;;;;;6.90;2.58;;;;;;;7.63;71.63;101212.19;5135703;27;20506;-55
2022/10/11 04:30:53;;;;;;;6.57;3.15;;;;;;;7.64;71.56;101213.88;5134722;27;20058;-55
2022/10/11 04:33:20;;;;;;;6.68;2.65;;;;;;;7.62;72.30;101220.78;5134484;27;20058;-53
2022/10/11 04:35:48;;;;;;;5.68;2.67;;;;;;;7.64;72.35;101219.44;5135566;27;20058;-53
2022/10/11 04:38:15;;;;;;;5.47;2.80;;;;;;;7.61;71.67;101224.69;5135398;27;20066;-54
2022/10/11 04:40:42;;;;;;;6.05;2.70;;;;;;;7.63;72.33;101219.69;5135728;27;20066;-55
2022/10/11 04:43:09;;;;;;;7.60;2.85;;;;;;;7.55;71.81;101232.16;5135596;27;20063;-55
2022/10/11 04:45:37;;;;;;;6.35;3.00;;;;;;;7.51;71.55;101222.72;5133313;27;20059;-55
2022/10/11 04:48:06;;;;;;;7.05;2.90;;;;;;;7.47;72.61;101224.38;5135563;27;20058;-54
2022/10/11 04:50:34;;;;;;;;;;;;;;;7.41;72.10;101225.47;5133897;27;20051;-53
2022/10/11 04:53:01;;;;;;;7.70;2.92;;;;;;;7.35;71.52;101241.28;5135298;27;19926;-54
2022/10/11 04:55:31;;;;;;;6.07;2.97;;;;;;;7.34;72.51;101236.84;5135077;27;20054;-54
2022/10/11 04:57:58;;;;;;;6.75;3.13;;;;;;;7.37;72.05;101235.44;5132856;27;20059;-54
2022/10/11 05:00:26;;;;;;;5.57;2.67;;;;;;;7.35;71.30;101232.97;5134755;27;20051;-55
2022/10/11 05:02:53;;;;;;;7.57;2.95;;;;;;;7.31;72.35;101235.44;5135169;27;20075;-55
2022/10/11 05:05:22;;;;;;;6.05;3.22;;;;;;;7.29;71.28;101234.06;5134411;27;20055;-54
2022/10/11 05:07:49;;;;;;;8.63;4.30;;;;;;;7.27;71.58;101231.56;5134796;27;20055;-52
2022/10/11 05:10:16;;;;;;;4.20;2.47;;;;;;;7.26;71.15;101234.59;5135080;27;20058;-54
2022/10/11 05:12:47;;;;;;;5.95;2.80;;;;;;;7.22;71.79;101236.25;5133762;27;20499;-55
2022/10/11 05:15:16;;;;;;;4.50;2.45;;;;;;;7.17;70.80;101237.06;5135189;27;20540;-54
2022/10/11 05:17:44;;;;;;;6.95;3.92;;;;;;;7.08;70.87;101233.19;5134880;27;20055;-55
2022/10/11 05:20:11;;;;;;;6.20;2.83;;;;;;;7.04;71.64;101232.06;5134380;27;20388;-55
2022/10/11 05:22:40;;;;;;;7.10;2.72;;;;;;;7.02;70.92;101242.56;5126717;27;20064;-55
2022/10/11 05:25:08;;;;;;;4.65;2.40;;;;;;;6.97;71.27;101257.25;5127462;27;20051;-55
2022/10/11 05:27:35;;;;;;;5.75;2.80;;;;;;;6.94;71.17;101246.69;5132572;27;20066;-55
2022/10/11 05:30:02;;;;;;;6.10;2.92;;;;;;;6.93;71.11;101258.03;5131084;27;20403;-54
2022/10/11 05:32:29;;;;;;;5.90;3.08;;;;;;;6.93;71.48;101255.25;5129686;27;20052;-54
2022/10/11 05:34:57;;;;;;;6.53;2.97;;;;;;;6.93;71.72;101263.56;5124052;27;20051;-55
2022/10/11 05:37:24;;;;;;;5.78;2.65;;;;;;;6.92;71.33;101262.75;5134237;27;20062;-54
2022/10/11 05:39:53;;;;;;;8.68;3.20;;;;;;;6.91;71.32;101261.09;5130671;27;20763;-54
2022/10/11 05:42:20;;;;;;;8.77;3.50;;;;;;;6.87;71.31;101271.03;5118335;27;20044;-53
2022/10/11 05:44:48;;;;;;;7.97;3.13;;;;;;;6.85;71.93;101273.25;5130451;27;20439;-54
2022/10/11 05:47:15;;;;;;;6.63;3.13;;;;;;;6.84;71.77;101272.38;5133990;27;20063;-54
2022/10/11 05:49:42;;;;;;;8.43;3.50;;;;;;;6.82;72.04;101271.81;5133739;27;20399;-54
2022/10/11 05:52:09;;;;;;;5.28;2.88;;;;;;;6.80;72.17;101275.97;5133578;27;20085;-54
2022/10/11 05:54:37;;;;;;;6.53;2.70;;;;;;;6.79;71.97;101275.16;5132930;27;20058;-54
2022/10/11 05:57:05;;;;;;;9.93;3.35;;;;;;;6.77;72.34;101277.34;5133674;27;20059;-52
2022/10/11 05:59:35;;;;;;;8.85;3.30;;;;;;;6.76;72.23;101281.25;5131366;27;20054;-54
2022/10/11 06:02:02;;;;;;;9.88;2.95;;;;;;;6.78;72.78;101283.72;5133644;27;20051;-54
2022/10/11 06:04:30;;;;;;;7.97;3.17;;;;;;;6.80;72.49;101281.50;5133687;27;20051;-55
2022/10/11 06:06:57;;;;;;;9.30;3.70;;;;;;;6.89;72.48;101271.59;5133779;27;20066;-54
2022/10/11 06:09:24;;;;;;;8.82;3.55;;;;;;;6.89;71.78;101282.69;5133548;27;20495;-55
2022/10/11 06:11:51;;;;;;;11.13;3.97;;;;;;;6.93;72.25;101292.13;5131861;27;20071;-55
2022/10/11 06:14:20;;;;;;;9.30;3.80;;;;;;;7.02;72.65;101298.78;5127018;27;20066;-55
2022/10/11 06:16:47;;;;;;;12.40;3.78;;;;;;;7.07;72.46;101295.22;5147456;27;20061;-53
2022/10/11 06:19:14;;;;;;;11.32;3.80;;;;;;;7.20;71.56;101300.28;5146266;27;20498;-53
2022/10/11 06:21:42;;;;;;;7.63;3.33;;;;;;;7.30;71.00;101305.00;5149839;27;20057;-53
2022/10/11 06:24:09;;;;;;;9.38;3.90;;;;;;;7.43;71.10;101303.66;5138480;27;20486;-53
2022/10/11 06:26:36;;;;;;;7.65;3.25;;;;;;;7.81;71.05;101298.72;5126052;27;20058;-50
2022/10/11 06:29:04;;;;;;;6.90;3.20;;;;;;;8.38;69.23;101299.56;5129739;27;20051;-52
2022/10/11 06:31:32;;;;;;;5.25;2.92;;;;;;;8.96;68.95;101299.19;5135263;27;20047;-53
2022/10/11 06:34:00;;;;;;;13.15;3.10;;;;;;;9.57;67.51;101309.19;5148061;27;20058;-53
2022/10/11 06:36:28;;;;;;;6.97;3.20;;;;;;;10.32;65.18;101303.38;5151856;27;20051;-54
2022/10/11 06:38:55;;;;;;;6.88;2.75;;;;;;;11.08;62.37;101307.31;5150675;27;20066;-55
2022/10/11 06:41:26;;;;;;;6.28;2.90;;;;;;;11.72;60.40;101305.06;5149355;27;20061;-54
2022/10/11 06:43:53;;;;;;;11.68;3.13;;;;;;;12.35;57.16;101297.41;5135655;27;20063;-54
2022/10/11 06:46:22;;;;;;;5.15;2.40;;;;;;;13.12;56.36;101310.75;5146458;27;20058;-54
2022/10/11 06:48:52;;;;;;;6.63;3.13;;;;;;;13.71;54.14;101307.25;5151823;27;20066;-55
2022/10/11 06:51:22;;;;;;;8.55;3.60;;;;;;;14.26;52.66;101303.41;5148123;27;20050;-54
2022/10/11 06:53:51;;;;;;;6.97;2.83;;;;;;;14.97;51.35;101306.31;5148473;27;20059;-53
2022/10/11 06:56:19;;;;;;;7.47;3.57;;;;;;;15.80;47.72;101312.00;5140586;27;20055;-56
2022/10/11 06:58:46;;;;;;;7.72;3.88;;;;;;;16.52;46.40;101309.63;5130696;27;20059;-54
2022/10/11 07:01:17;;;;;;;8.05;3.65;;;;;;;16.83;46.00;101314.22;5143205;27;20057;-53
2022/10/11 07:03:45;;;;;;;11.27;4.70;;;;;;;16.91;45.70;101313.34;5139189;27;20046;-54
2022/10/11 07:06:15;;;;;;;9.50;4.32;;;;;;;17.62;44.28;101318.28;5133417;27;20475;-55
2022/10/11 07:08:43;;;;;;;11.32;6.57;;;;;;;16.89;44.39;101326.94;5140373;27;20057;-38
2022/10/11 07:11:12;;;;;;;12.38;5.43;;;;;;;17.28;44.70;101329.72;5131571;27;20062;-55
2022/10/11 07:13:40;;;;;;;11.15;4.80;;;;;;;18.23;42.97;101326.28;5121712;27;20059;-56
2022/10/11 07:16:10;;;;;;;10.77;5.13;;;;;;;18.79;41.50;101325.91;5122414;27;20066;-57
2022/10/11 07:18:37;;;;;;;8.18;4.55;;;;;;;19.48;39.79;101329.81;5127360;27;20054;-57
2022/10/11 07:21:07;;;;;;;8.82;5.03;;;;;;;20.16;39.16;101331.13;5147103;27;20479;-57
2022/10/11 07:23:40;;;;;;;7.95;3.90;;;;;;;20.92;37.91;101327.59;5145733;27;20503;-57
2022/10/11 07:26:08;;;;;;;9.05;4.18;;;;;;;21.61;36.38;101322.44;5146778;27;20051;-57
2022/10/11 07:28:37;;;;;;;7.23;3.90;;;;;;;22.46;34.67;101322.66;5136151;27;21393;-57
2022/10/11 07:31:05;;;;;;;7.18;3.25;;;;;;;22.98;34.11;101331.75;5129170;27;20043;-56
2022/10/11 07:33:32;;;;;;;7.28;3.42;;;;;;;23.26;33.46;101339.97;5142110;27;20065;-56
2022/10/11 07:36:00;;;;;;;7.10;3.45;;;;;;;23.70;32.83;101340.28;5150756;27;20062;-57
2022/10/11 07:38:31;;;;;;;7.10;3.22;;;;;;;23.84;32.69;101336.84;5142144;27;20395;-57
2022/10/11 07:41:05;;;;;;;8.32;3.58;;;;;;;24.19;31.76;101335.72;5152753;27;20494;-57
2022/10/11 07:43:32;;;;;;;6.65;3.05;;;;;;;24.88;31.52;101337.31;5126287;27;20403;-57
2022/10/11 07:46:05;;;;;;;7.43;4.32;;;;;;;25.58;30.12;101328.97;5152865;27;20059;-57
2022/10/11 07:48:37;;;;;;;9.10;4.30;;;;;;;25.94;29.83;101329.22;5133416;27;20066;-57
2022/10/11 07:51:07;;;;;;;9.32;4.05;;;;;;;26.17;28.78;101329.75;5148291;27;20055;-57
2022/10/11 07:53:38;;;;;;;7.97;3.90;;;;;;;26.64;28.44;101327.06;5136229;27;20053;-57
2022/10/11 07:56:08;;;;;;;8.00;3.75;;;;;;;26.87;28.21;101336.09;5146372;27;20059;-57
2022/10/11 07:58:35;;;;;;;8.25;4.60;;;;;;;27.25;27.36;101338.59;5132899;27;20058;-57
2022/10/11 08:01:02;;;;;;;8.25;4.70;;;;;;;28.01;26.85;101336.47;5126616;27;20063;-57
2022/10/11 08:03:30;;;;;;;6.50;4.85;;;;;;;28.43;25.97;101337.53;5136769;27;20053;-57
2022/10/11 08:06:00;;;;;;;7.13;4.57;;;;;;;28.71;26.29;101334.53;5147229;27;20145;-56
2022/10/11 08:08:28;;;;;;;7.68;4.63;;;;;;;29.34;25.52;101340.25;5142514;27;20055;-56
2022/10/11 08:10:55;;;;;;;9.65;4.95;;;;;;;29.24;24.30;101335.41;5154158;27;20054;-57
2022/10/11 08:13:25;;;;;;;6.72;4.68;;;;;;;29.39;25.39;101336.09;5140690;27;20058;-57
2022/10/11 08:15:53;;;;;;;7.50;4.53;;;;;;;29.65;24.32;101342.41;5136031;27;20066;-57
2022/10/11 08:18:22;;;;;;;7.93;4.75;;;;;;;29.78;25.07;101349.28;5133592;27;20069;-56
2022/10/11 08:20:48;;;;;;;;;;;;;;;30.07;23.92;101346.06;5155782;27;20061;-57
2022/10/11 08:23:16;;;;;;;10.63;5.07;;;;;;;30.40;24.55;101332.97;5143825;27;20378;-57
2022/10/11 08:25:46;;;;;;;8.35;4.35;;;;;;;30.11;24.37;101343.97;5148743;27;20411;-57
2022/10/11 08:28:16;;;;;;;7.20;4.68;;;;;;;30.29;24.28;101347.47;5136400;27;21819;-57
2022/10/11 08:30:49;;;;;;;9.13;4.65;;;;;;;30.98;23.90;101341.63;5145487;27;20047;-57
2022/10/11 08:33:17;;;;;;;6.57;4.95;;;;;;;31.08;23.70;101352.16;5139587;27;20046;-57
2022/10/11 08:35:44;;;;;;;6.88;4.80;;;;;;;31.41;23.23;101345.84;5135360;27;20059;-57
2022/10/11 08:38:14;;;;;;;7.80;4.90;;;;;;;31.55;23.00;101346.41;5149961;27;20055;-57
2022/10/11 08:40:46;;;;;;;8.13;4.85;;;;;;;31.98;22.70;101338.22;5135568;27;20486;-57
2022/10/11 08:43:26;;;;;;;8.23;5.30;;;;;;;31.61;22.81;101345.94;5133856;27;20043;-56
2022/10/11 08:45:59;;;;;;;6.85;5.00;;;;;;;30.98;24.40;101353.13;5142500;27;20059;-57
2022/10/11 08:48:33;;;;;;;7.45;4.70;;;;;;;31.23;23.67;101352.72;5151693;27;20051;-57
2022/10/11 08:51:03;;;;;;;7.75;4.95;;;;;;;31.62;23.56;101341.78;5139530;27;20047;-57
2022/10/11 08:53:43;;;;;;;7.32;4.35;;;;;;;32.24;22.56;101351.69;5149215;27;20043;-57
2022/10/11 08:56:13;;;;;;;7.70;4.90;;;;;;;32.67;22.53;101344.19;5143404;27;20361;-57
2022/10/11 08:58:46;;;;;;;6.70;4.60;;;;;;;32.91;21.83;101342.00;5145040;27;20375;-57
2022/10/11 09:01:22;;;;;;;9.13;5.25;;;;;;;32.85;22.36;101346.69;5145186;27;20402;-57
2022/10/11 09:03:50;;;;;;;6.85;4.57;;;;;;;33.36;22.02;101345.00;5148849;27;20051;-57
2022/10/11 09:06:33;;;;;;;9.45;4.65;;;;;;;34.03;21.26;101345.72;5140536;27;20058;-57
2022/10/11 09:09:18;;;;;;;7.20;5.00;;;;;;;34.45;20.54;101342.84;5132562;27;20060;-57
2022/10/11 09:11:58;;;;;;;9.07;6.10;;;;;;;34.72;20.62;101340.38;5129924;27;20071;-57
2022/10/11 09:14:41;;;;;;;8.73;5.57;;;;;;;34.89;19.94;101331.56;5143748;27;20047;-56
2022/10/11 09:17:22;;;;;;;8.68;4.90;;;;;;;35.61;19.40;101334.94;5132919;27;20057;-57
2022/10/11 09:20:08;;;;;;;6.90;3.95;;;;;;;35.72;19.22;101327.53;5146412;27;20051;-57
2022/10/11 09:22:45;;;;;;;8.45;4.63;;;;;;;36.28;19.33;101330.84;5145167;27;20058;-58
2022/10/11 09:25:25;;;;;;;7.35;3.30;;;;;;;36.55;18.75;101330.22;5131095;27;20434;-57
2022/10/11 09:28:05;;;;;;;10.23;4.30;;;;;;;36.89;18.48;101337.16;5132992;27;20051;-57
2022/10/11 09:30:33;;;;;;;9.00;4.38;;;;;;;36.63;18.06;101340.28;5145537;27;20050;-57
2022/10/11 09:33:12;;;;;;;9.35;4.40;;;;;;;37.09;18.01;101330.97;5130056;27;20483;-57
2022/10/11 09:35:44;;;;;;;8.32;3.72;;;;;;;37.24;17.94;101334.88;5133890;27;20055;-57
2022/10/11 09:38:18;;;;;;;7.35;4.63;;;;;;;37.77;17.39;101339.66;5134339;27;20075;-57
2022/10/11 09:40:58;;;;;;;6.47;3.60;;;;;;;38.11;17.33;101331.91;5133976;27;20059;-57
2022/10/11 09:43:26;;;;;;;7.93;3.78;;;;;;;38.47;16.49;101330.22;5133604;27;20063;-58
2022/10/11 09:45:53;;;;;;;6.23;3.50;;;;;;;38.09;16.86;101335.31;5131377;27;20415;-58
2022/10/11 09:48:25;;;;;;;6.63;3.30;;;;;;;38.67;16.26;101336.31;5145577;27;20054;-57
2022/10/11 09:51:01;;;;;;;6.47;2.83;;;;;;;38.80;16.40;101335.31;5145331;27;20058;-58
2022/10/11 09:53:50;;;;;;;5.47;2.38;;;;;;;38.69;15.88;101327.91;5143902;27;20054;-58
2022/10/11 09:56:17;;;;;;;4.43;2.40;;;;;;;38.53;15.32;101329.09;5138618;27;21988;-56
2022/10/11 09:58:45;;;;;;;7.60;2.53;;;;;;;38.27;15.73;101331.56;5133611;27;20070;-56
2022/10/11 10:01:21;;;;;;;3.67;1.80;;;;;;;38.64;15.29;101330.66;5133194;27;20058;-57
2022/10/11 10:04:05;;;;;;;6.18;2.20;;;;;;;38.42;15.33;101345.44;5132266;27;20406;-57
2022/10/11 10:06:32;;;;;;;7.30;2.95;;;;;;;38.54;15.41;101338.66;5120318;27;20055;-58
2022/10/11 10:09:20;;;;;;;7.13;2.83;;;;;;;38.73;15.33;101339.38;5133772;27;20051;-57
2022/10/11 10:11:48;;;;;;;7.88;3.28;;;;;;;39.05;15.15;101342.81;5123242;27;20051;-57
2022/10/11 10:14:24;;;;;;;5.55;2.65;;;;;;;39.24;14.87;101335.59;5133060;27;20062;-58
2022/10/11 10:17:01;;;;;;;5.88;2.45;;;;;;;39.62;14.96;101339.09;5133065;27;20081;-57
2022/10/11 10:19:37;;;;;;;6.17;2.20;;;;;;;39.81;14.56;101328.88;5133365;27;20059;-57
2022/10/11 10:22:04;;;;;;;5.20;2.67;;;;;;;39.26;15.32;101335.09;5133044;27;20051;-58
2022/10/11 10:24:38;;;;;;;5.85;2.58;;;;;;;39.89;14.61;101330.13;5130601;27;20055;-58
2022/10/11 10:27:08;;;;;;;7.25;2.30;;;;;;;39.70;13.89;101328.66;5133198;27;20062;-57
2022/10/11 10:29:36;;;;;;;7.03;2.85;;;;;;;38.71;14.98;101331.13;5133096;27;20062;-58
2022/10/11 10:32:11;;;;;;;8.75;2.80;;;;;;;37.01;16.41;101342.06;5131807;27;20055;-58
2022/10/11 10:34:51;;;;;;;5.07;2.10;;;;;;;38.25;14.88;101334.16;5132879;27;20492;-57
2022/10/11 10:37:25;;;;;;;4.85;2.47;;;;;;;38.58;14.86;101340.09;5130345;27;20395;-58
2022/10/11 10:39:58;;;;;;;5.85;2.40;;;;;;;39.14;15.16;101334.84;5133443;27;20062;-58
2022/10/11 10:42:25;;;;;;;6.28;2.22;;;;;;;38.34;14.41;101342.84;5132855;27;20051;-58
2022/10/11 10:44:55;;;;;;;4.93;1.83;;;;;;;37.59;14.75;101328.84;5133163;27;20058;-57
2022/10/11 10:47:49;;;;;;;4.82;1.98;;;;;;;37.95;14.91;101339.66;5130679;27;20051;-57
2022/10/11 10:50:23;;;;;;;5.07;2.00;;;;;;;37.74;15.39;101341.44;5132946;27;20407;-58
2022/10/11 10:53:03;;;;;;;8.73;2.20;;;;;;;36.70;16.10;101337.09;5132755;27;20055;-57
2022/10/11 10:55:37;;;;;;;4.70;1.95;;;;;;;35.53;17.61;101335.22;5133130;28;20066;-57
2022/10/11 10:58:08;;;;;;;7.88;2.45;;;;;;;34.45;18.40;101346.56;5129347;27;20409;-57
2022/10/11 11:00:43;;;;;;;5.70;2.13;;;;;;;35.52;17.49;101339.38;5131816;27;20055;-57
2022/10/11 11:03:17;;;;;;;5.43;2.58;;;;;;;36.03;16.75;101340.47;5132536;28;20055;-57
2022/10/11 11:05:55;;;;;;;4.22;2.15;;;;;;;36.35;16.31;101339.28;5133052;28;20055;-57
2022/10/11 11:08:36;;;;;;;8.02;2.40;;;;;;;35.46;17.02;101337.53;5132370;28;20426;-57
2022/10/11 11:11:15;;;;;;;10.05;2.60;;;;;;;33.70;18.30;101334.25;5133037;28;20055;-57
2022/10/11 11:13:51;;;;;;;5.60;1.92;;;;;;;32.45;19.87;101332.31;5132506;28;20414;-57
2022/10/11 11:16:27;;;;;;;5.68;2.15;;;;;;;31.50;20.77;101332.53;5132612;28;20055;-56
2022/10/11 11:19:02;;;;;;;6.80;3.33;;;;;;;32.78;18.95;101329.53;5130389;27;20066;-57
2022/10/11 11:21:41;;;;;;;5.57;1.98;;;;;;;32.94;18.33;101327.47;5133078;28;20055;-57
2022/10/11 11:24:18;;;;;;;5.50;2.10;;;;;;;32.00;19.28;101335.72;5128570;27;20371;-59
2022/10/11 11:26:52;;;;;;;6.93;2.40;;;;;;;30.78;20.13;101329.97;5135128;27;20055;-57
2022/10/11 11:29:35;;;;;;;5.15;2.40;;;;;;;29.77;22.39;101326.72;5126306;28;20055;-57
2022/10/11 11:32:14;;;;;;;5.28;2.28;;;;;;;30.56;20.83;101320.84;5129936;27;20139;-57
2022/10/11 11:34:43;;;;;;;;;;;;;;;31.70;20.68;101323.13;5131483;28;20043;-57
2022/10/11 11:37:23;;;;;;;5.90;2.38;;;;;;;32.88;19.20;101319.81;5132864;28;20355;-57
2022/10/11 11:39:54;;;;;;;4.75;2.30;;;;;;;33.73;18.03;101316.81;5138146;27;20059;-58
2022/10/11 11:42:26;;;;;;;5.03;2.70;;;;;;;34.02;16.70;101312.28;5121153;27;20043;-58
2022/10/11 11:44:53;;;;;;;4.10;1.80;;;;;;;34.02;16.69;101310.22;5151532;27;20055;-58
2022/10/11 11:47:25;;;;;;;5.18;2.15;;;;;;;34.51;17.62;101312.09;5153252;27;20506;-57